Renton, WA (98056)

11:36 PM PST on January 18, 2017 (GMT -0800)
Kennydale | | Change Station

Elev 308 ft 47.51 °N, 122.19 °W | Updated 51 seconds ago

Light Rain
Light Rain Mist
46.2 °F
Feels Like 43 °F
N
5.6
Wind Variable Wind from SSW
Gusts 13.7 mph

Today
High -- | Low -- °F
--% Chance of Precip.
Yesterday
High -- | Low -- °F
Precip. -- in
Pressure 29.40 in
Visibility 4.0 miles
Clouds Scattered Clouds 2500 ft
Overcast 3300 ft
Windchill 43 °F
Dew Point 43 °F
Humidity 88%
Rainfall Not available.
Snow Depth Not available.
7:49 AM 4:49 PM
Waning Gibbous, 56% visible
SPECI KRNT 190732Z AUTO 15007KT 4SM -RA BR SCT025 OVC033 08/06 A2940 RMK AO2 P0002 T00830061 $
Pressure 29.40 in
Visibility 4.0 miles
Clouds Scattered Clouds 2500 ft
Overcast 3300 ft
Windchill 43 °F
Dew Point 43 °F
Humidity 88%
Rainfall Not available.
Snow Depth Not available.
7:49 AM 4:49 PM
Waning Gibbous, 56% visible
SPECI KRNT 190732Z AUTO 15007KT 4SM -RA BR SCT025 OVC033 08/06 A2940 RMK AO2 P0002 T00830061 $

Get Your Daily Forecast Email!

Thanks for signing up!

Be on the lookout for a verification email in your inbox.

You'll start receiving the daily forecast at 8 AM.

×

10-Day Weather Forecast

Almanac

Astronomy

Jan. 18, 2017 Rise Set
Actual Time
Civil Twilight
Nautical Twilight
Astronomical Twilight
Moon
Length of Visible Light
Length of Day
Tomorrow will be .
, % of the Moon is Illuminated

Today's Extremes

State Highs State Lows

Community

WunderPhotos

Upload Photos

1,962,540 photos uploaded!

WunderBlog® & News

Nearby

Air Quality

  Air Quality AQ Index Pollutant
Not available.

Snow Depth

Station Depth Elevation

Earthquake Activity

City Distance Mag. Time & Date
Minimum magnitude displayed is 2.5.

Coastal Water Temperatures

Place Temperature

Stations

Nearby Weather Stations

Station Location Temp. Windchill Dew Point Humidity Wind Precip. Elev Updated Type
                   

Watches & Warnings

There are currently no watches in effect.